createdAt,value
2023-03-23T00:03:52.896Z,57.45
2023-03-23T00:06:22.133Z,56.90
2023-03-23T00:08:51.793Z,56.73
2023-03-23T00:14:03.854Z,56.52
2023-03-23T00:16:33.440Z,57.08
2023-03-23T00:19:04.080Z,56.73
2023-03-23T00:21:34.563Z,57.69
2023-03-23T00:24:08.210Z,56.29
2023-03-23T00:26:48.061Z,56.14
2023-03-23T00:29:22.358Z,56.82
2023-03-23T00:31:50.181Z,55.44
2023-03-23T00:34:20.712Z,55.01
2023-03-23T00:36:49.767Z,54.69
2023-03-23T00:39:17.569Z,53.84
2023-03-23T00:41:45.959Z,53.37
2023-03-23T00:44:18.003Z,53.53
2023-03-23T00:46:50.771Z,52.88
2023-03-23T00:49:20.539Z,53.06
2023-03-23T00:51:47.496Z,53.41
2023-03-23T00:54:14.241Z,53.40
2023-03-23T00:56:41.211Z,54.80
2023-03-23T00:59:08.001Z,52.85
2023-03-23T01:01:36.155Z,53.67
2023-03-23T01:04:05.284Z,52.70
2023-03-23T01:06:36.284Z,52.68
2023-03-23T01:09:04.479Z,52.41
2023-03-23T01:11:31.140Z,52.49
2023-03-23T01:13:57.787Z,52.93
2023-03-23T01:16:24.827Z,53.05
2023-03-23T01:18:51.523Z,53.63
2023-03-23T01:21:20.434Z,53.38
2023-03-23T01:23:47.916Z,52.85
2023-03-23T01:26:17.630Z,53.11
2023-03-23T01:28:44.918Z,52.83
2023-03-23T01:31:17.108Z,52.65
2023-03-23T01:33:44.151Z,52.63
2023-03-23T01:36:16.180Z,53.06
2023-03-23T01:38:45.515Z,53.29
2023-03-23T01:41:13.439Z,53.64
2023-03-23T01:46:33.683Z,52.77
2023-03-23T01:49:09.939Z,52.78
2023-03-23T01:51:42.132Z,52.83
2023-03-23T01:54:11.839Z,52.75
2023-03-23T01:56:46.423Z,52.64
2023-03-23T01:59:14.606Z,53.25
2023-03-23T02:01:46.070Z,52.72
2023-03-23T02:04:15.979Z,52.81
2023-03-23T02:06:43.742Z,52.57
2023-03-23T02:09:10.761Z,52.52
2023-03-23T02:11:37.528Z,52.59
2023-03-23T02:14:04.354Z,52.43
2023-03-23T02:16:53.152Z,52.52
2023-03-23T02:20:08.173Z,52.98
2023-03-23T02:22:57.112Z,52.79
2023-03-23T02:26:01.423Z,53.06
2023-03-23T02:28:40.404Z,53.15
2023-03-23T02:31:18.042Z,53.57
2023-03-23T02:34:16.883Z,53.01
2023-03-23T02:39:30.958Z,52.95
2023-03-23T02:42:05.801Z,53.39
2023-03-23T02:44:44.349Z,53.04
2023-03-23T02:47:25.197Z,53.63
2023-03-23T02:49:55.867Z,53.99
2023-03-23T02:52:26.633Z,53.45
2023-03-23T02:54:55.937Z,53.77
2023-03-23T02:57:40.438Z,53.94
2023-03-23T03:00:12.281Z,53.59
2023-03-23T03:02:43.350Z,53.58
2023-03-23T03:05:37.362Z,53.54
2023-03-23T03:08:20.288Z,53.30
2023-03-23T03:10:56.746Z,53.38
2023-03-23T03:13:36.172Z,53.74
2023-03-23T03:16:11.677Z,53.93
2023-03-23T03:18:52.344Z,53.58
2023-03-23T03:21:26.550Z,53.82
2023-03-23T03:23:55.554Z,54.06
2023-03-23T03:26:27.752Z,53.62
2023-03-23T03:28:56.618Z,53.85
2023-03-23T03:31:29.277Z,52.99
2023-03-23T03:33:57.306Z,52.96
2023-03-23T03:39:16.134Z,53.05
2023-03-23T03:41:43.320Z,53.31
2023-03-23T03:44:11.036Z,53.28
2023-03-23T03:46:38.384Z,52.97
2023-03-23T03:49:07.993Z,53.15
2023-03-23T03:51:36.706Z,52.72
2023-03-23T03:54:04.006Z,52.96
2023-03-23T03:56:32.685Z,53.32
2023-03-23T03:59:00.744Z,52.94
2023-03-23T04:01:47.311Z,52.53
2023-03-23T04:04:13.894Z,52.93
2023-03-23T04:06:40.501Z,52.79
2023-03-23T04:09:09.075Z,52.81
2023-03-23T04:11:35.890Z,53.56
2023-03-23T04:14:03.689Z,53.01
2023-03-23T04:16:30.775Z,52.97
2023-03-23T04:18:58.010Z,53.02
2023-03-23T04:21:24.767Z,53.12
2023-03-23T04:23:51.546Z,52.94
2023-03-23T04:26:18.401Z,52.83
2023-03-23T04:28:45.122Z,53.20
2023-03-23T04:31:13.913Z,53.57
2023-03-23T04:33:59.652Z,53.35
2023-03-23T04:36:27.163Z,54.86
2023-03-23T04:39:14.522Z,53.28
2023-03-23T04:41:41.473Z,53.62
2023-03-23T04:44:08.668Z,53.46
2023-03-23T04:46:35.486Z,54.07
2023-03-23T04:49:03.148Z,53.38
2023-03-23T04:51:32.414Z,53.64
2023-03-23T04:53:59.140Z,53.39
2023-03-23T04:56:25.745Z,53.03
2023-03-23T04:58:52.695Z,53.33
2023-03-23T05:01:19.304Z,53.86
2023-03-23T05:03:46.167Z,53.46
2023-03-23T05:06:12.779Z,53.24
2023-03-23T05:08:42.334Z,53.80
2023-03-23T05:11:09.776Z,54.03
2023-03-23T05:13:36.392Z,54.40
2023-03-23T05:16:06.626Z,54.44
2023-03-23T05:18:33.897Z,54.22
2023-03-23T05:21:02.103Z,53.85
2023-03-23T05:23:28.934Z,54.18
2023-03-23T05:25:57.428Z,53.70
2023-03-23T05:28:24.178Z,53.85
2023-03-23T05:30:50.864Z,53.66
2023-03-23T05:33:17.520Z,53.90
2023-03-23T05:35:44.558Z,53.61
2023-03-23T05:38:11.267Z,53.41
2023-03-23T05:40:38.825Z,53.61
2023-03-23T05:43:05.513Z,53.39
2023-03-23T05:45:32.091Z,53.64
2023-03-23T05:47:58.743Z,53.90
2023-03-23T05:50:25.566Z,53.66
2023-03-23T05:52:52.514Z,53.64
2023-03-23T05:57:56.440Z,54.31
2023-03-23T06:00:24.621Z,54.72
2023-03-23T06:02:52.104Z,54.24
2023-03-23T06:05:18.792Z,54.53
2023-03-23T06:07:45.513Z,53.89
2023-03-23T06:10:12.249Z,54.72
2023-03-23T06:12:40.915Z,54.90
2023-03-23T06:15:08.966Z,54.72
2023-03-23T06:17:37.445Z,54.97
2023-03-23T06:20:10.415Z,55.73
2023-03-23T06:22:41.118Z,54.58
2023-03-23T06:25:09.014Z,55.07
2023-03-23T06:27:36.669Z,54.94
2023-03-23T06:30:05.748Z,55.29
2023-03-23T06:32:33.860Z,56.99
2023-03-23T06:35:00.530Z,56.61
2023-03-23T06:37:27.286Z,55.93
2023-03-23T06:44:59.508Z,57.32
2023-03-23T06:47:26.176Z,56.46
2023-03-23T06:49:52.915Z,59.26
2023-03-23T06:52:19.817Z,57.27
2023-03-23T06:54:46.463Z,56.71
2023-03-23T06:57:13.091Z,58.09
2023-03-23T06:59:39.691Z,57.92
2023-03-23T07:02:07.814Z,57.15
2023-03-23T07:04:34.442Z,57.61
2023-03-23T07:07:01.147Z,57.02
2023-03-23T07:09:41.113Z,55.54
2023-03-23T07:12:10.897Z,55.36
2023-03-23T07:14:37.691Z,54.53
2023-03-23T07:17:05.240Z,54.71
2023-03-23T07:19:32.113Z,54.65
2023-03-23T07:21:58.734Z,54.23
2023-03-23T07:24:25.506Z,55.63
2023-03-23T07:26:52.262Z,55.04
2023-03-23T07:29:18.922Z,56.05
2023-03-23T07:31:45.696Z,56.63
2023-03-23T07:34:12.604Z,58.16
2023-03-23T07:36:39.252Z,56.35
2023-03-23T07:39:08.871Z,56.97
2023-03-23T07:41:35.889Z,58.00
2023-03-23T07:44:02.706Z,56.45
2023-03-23T07:46:29.463Z,55.83
2023-03-23T07:48:56.182Z,56.17
2023-03-23T07:54:06.329Z,58.15
2023-03-23T07:56:33.480Z,57.87
2023-03-23T07:59:00.299Z,57.56
2023-03-23T08:01:27.009Z,57.44
2023-03-23T08:03:55.658Z,57.28
2023-03-23T08:06:25.068Z,55.98
2023-03-23T08:08:52.650Z,56.34
2023-03-23T08:11:20.981Z,57.24
2023-03-23T08:13:48.321Z,53.94
2023-03-23T08:16:14.944Z,55.55
2023-03-23T08:18:41.742Z,57.47
2023-03-23T08:21:10.390Z,56.09
2023-03-23T08:23:37.956Z,55.09
2023-03-23T08:26:07.487Z,55.89
2023-03-23T08:28:36.057Z,54.87
2023-03-23T08:31:11.556Z,55.58
2023-03-23T08:33:39.086Z,55.59
2023-03-23T08:36:06.577Z,55.19
2023-03-23T08:38:33.446Z,55.18
2023-03-23T08:41:02.355Z,54.95
2023-03-23T08:43:29.660Z,57.22
2023-03-23T08:45:56.329Z,57.07
2023-03-23T08:48:24.218Z,57.19
2023-03-23T08:53:33.444Z,57.28
2023-03-23T08:56:11.908Z,57.63
2023-03-23T08:58:40.170Z,57.30
2023-03-23T09:01:08.429Z,58.31
2023-03-23T09:03:36.054Z,58.67
2023-03-23T09:06:05.253Z,59.25
2023-03-23T09:08:32.902Z,58.12
2023-03-23T09:11:04.297Z,59.19
2023-03-23T09:13:31.100Z,60.78
2023-03-23T09:15:59.005Z,60.10
2023-03-23T09:18:26.738Z,59.95
2023-03-23T09:20:54.838Z,58.47
2023-03-23T09:23:21.922Z,59.51
2023-03-23T09:25:49.381Z,60.25
2023-03-23T09:28:16.112Z,59.23
2023-03-23T09:30:53.058Z,59.31
2023-03-23T09:33:20.163Z,60.14
2023-03-23T09:35:46.791Z,61.47
2023-03-23T09:38:13.719Z,60.99
2023-03-23T09:40:55.267Z,60.92
2023-03-23T09:43:30.585Z,60.04
2023-03-23T09:46:19.480Z,59.67
2023-03-23T09:48:53.061Z,60.79
2023-03-23T09:51:46.381Z,58.39
2023-03-23T09:54:22.607Z,59.70
2023-03-23T09:56:50.831Z,60.06
2023-03-23T09:59:17.465Z,59.41
2023-03-23T10:04:39.496Z,58.57
2023-03-23T10:07:15.542Z,58.45
2023-03-23T10:09:44.354Z,57.77
2023-03-23T10:12:37.968Z,58.08
2023-03-23T10:15:17.393Z,58.22
2023-03-23T10:17:50.330Z,57.54
2023-03-23T10:20:33.022Z,58.26
2023-03-23T10:23:20.852Z,58.12
2023-03-23T10:26:01.769Z,57.81
2023-03-23T10:31:21.650Z,59.11
2023-03-23T10:33:56.376Z,58.18
2023-03-23T10:36:23.100Z,57.91
2023-03-23T10:39:05.086Z,58.13
2023-03-23T10:41:32.527Z,58.57
2023-03-23T10:43:59.342Z,58.83
2023-03-23T10:46:49.311Z,56.71
2023-03-23T10:52:27.576Z,57.27
2023-03-23T10:55:18.819Z,57.98
2023-03-23T10:57:48.381Z,58.77
2023-03-23T11:00:22.648Z,59.35
2023-03-23T11:03:15.955Z,57.51
2023-03-23T11:05:49.495Z,57.46
2023-03-23T11:08:25.327Z,58.10
2023-03-23T11:11:11.124Z,58.98
2023-03-23T11:13:46.515Z,59.03
2023-03-23T11:19:15.930Z,58.89
2023-03-23T11:21:49.152Z,60.12
2023-03-23T11:24:16.327Z,60.00
2023-03-23T11:26:53.577Z,61.40
2023-03-23T11:29:28.512Z,60.46
2023-03-23T11:32:08.925Z,62.36
2023-03-23T11:34:42.922Z,61.64
2023-03-23T11:37:53.593Z,62.79
2023-03-23T11:40:32.613Z,63.23
2023-03-23T11:43:02.671Z,65.72
2023-03-23T11:45:39.101Z,65.99
2023-03-23T11:48:08.411Z,67.93
2023-03-23T11:50:50.890Z,65.53
2023-03-23T11:53:40.050Z,65.70
2023-03-23T11:56:16.149Z,65.32
2023-03-23T11:58:42.857Z,66.54
2023-03-23T12:01:26.394Z,66.63
2023-03-23T12:04:11.029Z,63.63
2023-03-23T12:06:52.905Z,63.79
2023-03-23T12:09:37.914Z,64.39
2023-03-23T12:12:33.951Z,62.52
2023-03-23T12:15:18.571Z,60.75
2023-03-23T12:18:07.938Z,59.85
2023-03-23T12:21:05.019Z,61.81
2023-03-23T12:24:01.269Z,63.65
2023-03-23T12:26:33.021Z,64.92
2023-03-23T12:29:08.492Z,64.09
2023-03-23T12:31:54.083Z,66.18
2023-03-23T12:34:35.699Z,66.09
2023-03-23T12:37:12.031Z,66.53
2023-03-23T12:39:51.916Z,66.63
2023-03-23T12:42:24.643Z,68.86
2023-03-23T12:45:04.179Z,69.78
2023-03-23T12:47:46.535Z,69.99
2023-03-23T12:50:36.157Z,70.39
2023-03-23T12:53:12.793Z,69.29
2023-03-23T12:55:50.620Z,69.44
2023-03-23T13:01:08.246Z,70.14
2023-03-23T13:03:44.031Z,71.32
2023-03-23T13:06:19.839Z,70.02
2023-03-23T13:09:25.239Z,71.22
2023-03-23T13:11:54.397Z,71.50
2023-03-23T13:14:46.373Z,72.89
2023-03-23T13:17:22.235Z,72.66
2023-03-23T13:19:51.698Z,71.45
2023-03-23T13:22:25.650Z,71.68
2023-03-23T13:25:00.869Z,72.30
2023-03-23T13:27:29.654Z,72.52
2023-03-23T13:29:59.208Z,71.12
2023-03-23T13:32:43.769Z,70.81
2023-03-23T13:35:16.864Z,71.29
2023-03-23T13:37:48.869Z,70.74
2023-03-23T13:40:27.243Z,70.55
2023-03-23T13:42:57.235Z,70.28
2023-03-23T13:45:36.763Z,70.77
2023-03-23T13:48:25.355Z,69.86
2023-03-23T13:50:57.782Z,71.02
2023-03-23T13:53:33.566Z,71.33
2023-03-23T13:56:17.613Z,71.48
2023-03-23T13:59:36.898Z,71.97
2023-03-23T14:02:28.137Z,71.42
2023-03-23T14:04:56.271Z,71.28
2023-03-23T14:07:25.418Z,71.60
2023-03-23T14:09:52.658Z,71.96
2023-03-23T14:12:23.053Z,71.75
2023-03-23T14:15:02.491Z,71.72
2023-03-23T14:17:31.571Z,72.16
2023-03-23T14:20:00.282Z,71.65
2023-03-23T14:22:29.470Z,72.27
2023-03-23T14:25:10.857Z,72.14
2023-03-23T14:27:37.802Z,72.26
2023-03-23T14:30:08.159Z,71.13
2023-03-23T14:32:35.710Z,69.18
2023-03-23T14:35:09.711Z,67.44
2023-03-23T14:37:37.928Z,68.46
2023-03-23T14:42:45.657Z,68.26
2023-03-23T14:48:00.582Z,68.27
2023-03-23T14:50:57.153Z,65.82
2023-03-23T14:53:32.453Z,67.51
2023-03-23T14:56:04.820Z,63.40
2023-03-23T14:58:32.555Z,65.06
2023-03-23T15:01:14.383Z,66.83
2023-03-23T15:03:44.525Z,59.82
2023-03-23T15:06:16.338Z,62.68
2023-03-23T15:08:44.458Z,61.70
2023-03-23T15:11:16.807Z,58.48
2023-03-23T15:13:48.415Z,56.82
2023-03-23T15:16:20.994Z,53.66
2023-03-23T15:18:56.226Z,53.32
2023-03-23T15:21:30.699Z,53.71
2023-03-23T15:23:58.651Z,53.13
2023-03-23T15:26:31.442Z,52.56
2023-03-23T15:29:27.294Z,52.57
2023-03-23T15:31:56.386Z,52.33
2023-03-23T15:34:33.751Z,51.90
2023-03-23T15:37:14.941Z,51.36
2023-03-23T15:39:46.803Z,50.73
2023-03-23T15:42:26.370Z,51.61
2023-03-23T15:45:11.712Z,50.99
2023-03-23T15:47:44.239Z,50.73
2023-03-23T15:50:33.712Z,49.98
2023-03-23T15:53:01.277Z,50.65
2023-03-23T15:55:29.592Z,50.22
2023-03-23T15:57:58.872Z,50.26
2023-03-23T16:00:28.725Z,49.47
2023-03-23T16:03:05.508Z,50.03
2023-03-23T16:05:33.724Z,49.23
2023-03-23T16:08:01.101Z,50.24
2023-03-23T16:10:29.083Z,50.31
2023-03-23T16:12:56.083Z,50.76
2023-03-23T16:15:23.068Z,50.08
2023-03-23T16:20:30.131Z,50.72
2023-03-23T16:22:56.852Z,50.56
2023-03-23T16:25:24.313Z,50.46
2023-03-23T16:27:52.628Z,50.06
2023-03-23T16:30:27.934Z,50.65
2023-03-23T16:32:57.064Z,50.99
2023-03-23T16:35:24.591Z,51.05
2023-03-23T16:38:07.094Z,51.45
2023-03-23T16:40:35.795Z,50.78
2023-03-23T16:43:02.471Z,51.27
2023-03-23T16:45:43.248Z,52.08
2023-03-23T16:48:12.019Z,51.41
2023-03-23T16:50:39.143Z,52.51
2023-03-23T16:53:08.389Z,52.46
2023-03-23T16:55:36.788Z,52.41
2023-03-23T17:00:34.080Z,52.36
2023-03-23T17:03:00.824Z,52.27
2023-03-23T17:05:29.449Z,52.10
2023-03-23T17:07:56.709Z,51.35
2023-03-23T17:10:27.371Z,51.48
2023-03-23T17:12:55.506Z,52.02
2023-03-23T17:15:24.491Z,52.20
2023-03-23T17:17:51.494Z,51.90
2023-03-23T17:20:18.333Z,52.26
2023-03-23T17:22:45.055Z,52.21
2023-03-23T17:25:11.787Z,52.54
2023-03-23T17:27:38.900Z,52.43
2023-03-23T17:30:07.627Z,52.93
2023-03-23T17:32:34.821Z,53.33
2023-03-23T17:35:01.915Z,53.49
2023-03-23T17:37:28.600Z,52.78
2023-03-23T17:39:55.229Z,52.79
2023-03-23T17:42:22.002Z,53.00
2023-03-23T17:44:48.611Z,52.84
2023-03-23T17:47:15.251Z,53.09
2023-03-23T17:49:41.996Z,53.18
2023-03-23T17:52:08.641Z,53.27
2023-03-23T17:54:35.320Z,52.97
2023-03-23T17:57:04.109Z,53.55
2023-03-23T17:59:31.692Z,53.64
2023-03-23T18:04:29.873Z,53.85
2023-03-23T18:06:57.627Z,53.80
2023-03-23T18:09:25.357Z,54.15
2023-03-23T18:11:53.194Z,53.93
2023-03-23T18:16:53.380Z,54.09
2023-03-23T18:19:20.435Z,54.39
2023-03-23T18:21:47.114Z,54.30
2023-03-23T18:24:14.128Z,54.41
2023-03-23T18:26:42.523Z,54.55
2023-03-23T18:29:09.301Z,54.63
2023-03-23T18:31:40.266Z,54.68
2023-03-23T18:34:07.546Z,54.42
2023-03-23T18:36:34.793Z,55.27
2023-03-23T18:41:34.581Z,54.94
2023-03-23T18:44:01.169Z,54.55
2023-03-23T18:46:27.976Z,55.08
2023-03-23T18:48:54.751Z,54.82
2023-03-23T18:51:21.503Z,54.83
2023-03-23T18:53:48.133Z,55.14
2023-03-23T18:56:17.494Z,55.15
2023-03-23T18:58:44.958Z,55.10
2023-03-23T19:01:15.831Z,55.26
2023-03-23T19:03:43.108Z,55.31
2023-03-23T19:06:19.750Z,55.32
2023-03-23T19:08:48.071Z,54.98
2023-03-23T19:11:15.913Z,55.26
2023-03-23T19:13:58.435Z,55.18
2023-03-23T19:16:28.301Z,55.22
2023-03-23T19:18:55.067Z,55.10
2023-03-23T19:21:25.529Z,55.13
2023-03-23T19:23:54.142Z,55.14
2023-03-23T19:26:24.406Z,55.36
2023-03-23T19:34:01.319Z,55.95
2023-03-23T19:36:28.111Z,55.41
2023-03-23T19:38:54.997Z,55.37
2023-03-23T19:41:22.299Z,55.66
2023-03-23T19:43:49.173Z,55.42
2023-03-23T19:46:16.455Z,55.22
2023-03-23T19:48:43.752Z,55.30
2023-03-23T19:51:12.434Z,55.80
2023-03-23T19:53:39.885Z,55.33
2023-03-23T19:56:16.612Z,55.41
2023-03-23T19:58:43.494Z,55.30
2023-03-23T20:01:10.580Z,55.08
2023-03-23T20:03:37.377Z,54.98
2023-03-23T20:06:08.413Z,55.40
2023-03-23T20:08:35.379Z,55.01
2023-03-23T20:11:07.077Z,55.27
2023-03-23T20:16:09.054Z,55.47
2023-03-23T20:21:07.595Z,55.72
2023-03-23T20:23:35.590Z,55.97
2023-03-23T20:28:45.799Z,55.04
2023-03-23T20:31:23.302Z,55.22
2023-03-23T20:34:00.260Z,55.17
2023-03-23T20:36:42.566Z,55.26
2023-03-23T20:39:21.654Z,55.54
2023-03-23T20:41:50.683Z,55.51
2023-03-23T20:44:19.187Z,55.89
2023-03-23T20:46:47.661Z,55.41
2023-03-23T20:49:16.048Z,55.54
2023-03-23T20:51:44.993Z,55.68
2023-03-23T20:54:14.241Z,55.42
2023-03-23T20:56:41.142Z,55.59
2023-03-23T20:59:08.664Z,55.92
2023-03-23T21:01:35.941Z,56.31
2023-03-23T21:04:03.401Z,56.53
2023-03-23T21:06:31.218Z,56.20
2023-03-23T21:08:58.352Z,56.63
2023-03-23T21:11:27.051Z,56.58
2023-03-23T21:13:54.092Z,56.13
2023-03-23T21:18:58.453Z,57.52
2023-03-23T21:21:27.403Z,56.70
2023-03-23T21:23:54.432Z,55.89
2023-03-23T21:26:23.688Z,56.00
2023-03-23T21:28:54.147Z,56.70
2023-03-23T21:31:23.587Z,57.70
2023-03-23T21:33:50.664Z,56.71
2023-03-23T21:36:17.316Z,57.42
2023-03-23T21:38:44.845Z,58.18
2023-03-23T21:41:14.160Z,57.56
2023-03-23T21:43:41.383Z,58.53
2023-03-23T21:46:09.673Z,59.87
2023-03-23T21:48:41.671Z,59.66
2023-03-23T21:51:12.384Z,60.33
2023-03-23T21:53:39.645Z,59.95
2023-03-23T21:56:08.069Z,59.95
2023-03-23T22:01:08.444Z,58.36
2023-03-23T22:03:36.286Z,57.48
2023-03-23T22:06:09.824Z,58.48
2023-03-23T22:08:38.536Z,58.98
2023-03-23T22:11:08.820Z,59.48
2023-03-23T22:13:37.315Z,59.31
2023-03-23T22:16:07.100Z,58.40
2023-03-23T22:18:34.960Z,58.52
2023-03-23T22:21:01.662Z,60.37
2023-03-23T22:23:28.325Z,58.26
2023-03-23T22:25:56.018Z,58.63
2023-03-23T22:31:07.076Z,58.76
2023-03-23T22:33:35.211Z,58.74
2023-03-23T22:36:06.830Z,58.54
2023-03-23T22:38:34.985Z,57.86
2023-03-23T22:41:07.188Z,57.85
2023-03-23T22:43:35.598Z,57.65
2023-03-23T22:46:02.610Z,57.61
2023-03-23T22:48:29.339Z,59.63
2023-03-23T22:50:56.088Z,58.36
2023-03-23T22:53:22.906Z,58.75
2023-03-23T22:55:52.941Z,57.80
2023-03-23T22:58:19.728Z,57.53
2023-03-23T23:00:49.832Z,57.54
2023-03-23T23:03:17.490Z,58.08
2023-03-23T23:05:50.176Z,57.92
2023-03-23T23:08:18.214Z,58.11
2023-03-23T23:10:47.638Z,57.87
2023-03-23T23:13:15.241Z,58.20
2023-03-23T23:18:23.441Z,58.45
2023-03-23T23:20:52.907Z,58.45
2023-03-23T23:25:53.368Z,59.13
2023-03-23T23:28:21.577Z,60.37
2023-03-23T23:30:49.159Z,60.58
2023-03-23T23:33:16.292Z,59.13
2023-03-23T23:35:42.988Z,58.75
2023-03-23T23:38:12.775Z,60.36
2023-03-23T23:40:41.562Z,62.15
2023-03-23T23:43:10.522Z,61.65
2023-03-23T23:45:37.604Z,60.03
2023-03-23T23:48:05.620Z,61.01
2023-03-23T23:50:32.518Z,61.70
2023-03-23T23:52:59.231Z,65.21
2023-03-23T23:55:27.138Z,69.43
2023-03-23T23:57:54.106Z,70.25
